sensor_id;sensor_type;location;lat;lon;timestamp;P1;durP1;ratioP1;P2;durP2;ratioP2
68944;SDS011;55984;48.790;8.990;2022-12-29T00:01:35;6.80;;;3.10;;
68944;SDS011;55984;48.790;8.990;2022-12-29T00:04:01;4.17;;;2.60;;
68944;SDS011;55984;48.790;8.990;2022-12-29T00:06:27;5.27;;;2.67;;
68944;SDS011;55984;48.790;8.990;2022-12-29T00:08:54;6.00;;;2.63;;
68944;SDS011;55984;48.790;8.990;2022-12-29T00:11:20;6.07;;;2.87;;
68944;SDS011;55984;48.790;8.990;2022-12-29T00:13:48;4.90;;;2.90;;
68944;SDS011;55984;48.790;8.990;2022-12-29T00:16:33;4.20;;;2.50;;
68944;SDS011;55984;48.790;8.990;2022-12-29T00:18:59;5.90;;;2.83;;
68944;SDS011;55984;48.790;8.990;2022-12-29T00:21:25;4.87;;;2.60;;
68944;SDS011;55984;48.790;8.990;2022-12-29T00:24:14;4.90;;;2.40;;
68944;SDS011;55984;48.790;8.990;2022-12-29T00:29:48;3.93;;;2.27;;
68944;SDS011;55984;48.790;8.990;2022-12-29T00:32:32;4.73;;;2.67;;
68944;SDS011;55984;48.790;8.990;2022-12-29T00:35:23;4.00;;;2.60;;
68944;SDS011;55984;48.790;8.990;2022-12-29T00:37:52;6.53;;;2.80;;
68944;SDS011;55984;48.790;8.990;2022-12-29T00:40:38;6.80;;;2.80;;
68944;SDS011;55984;48.790;8.990;2022-12-29T00:43:22;3.70;;;2.37;;
68944;SDS011;55984;48.790;8.990;2022-12-29T00:46:11;5.33;;;3.10;;
68944;SDS011;55984;48.790;8.990;2022-12-29T00:48:37;5.83;;;2.70;;
68944;SDS011;55984;48.790;8.990;2022-12-29T00:51:21;3.83;;;2.40;;
68944;SDS011;55984;48.790;8.990;2022-12-29T00:53:46;5.47;;;2.80;;
68944;SDS011;55984;48.790;8.990;2022-12-29T00:56:13;4.40;;;3.00;;
68944;SDS011;55984;48.790;8.990;2022-12-29T00:58:39;4.00;;;2.50;;
68944;SDS011;55984;48.790;8.990;2022-12-29T01:01:05;6.40;;;2.97;;
68944;SDS011;55984;48.790;8.990;2022-12-29T01:03:32;6.43;;;2.50;;
68944;SDS011;55984;48.790;8.990;2022-12-29T01:06:02;3.33;;;2.37;;
68944;SDS011;55984;48.790;8.990;2022-12-29T01:08:29;8.60;;;2.53;;
68944;SDS011;55984;48.790;8.990;2022-12-29T01:11:02;6.03;;;2.50;;
68944;SDS011;55984;48.790;8.990;2022-12-29T01:13:28;6.67;;;2.73;;
68944;SDS011;55984;48.790;8.990;2022-12-29T01:15:54;5.37;;;2.70;;
68944;SDS011;55984;48.790;8.990;2022-12-29T01:18:20;4.00;;;2.30;;
68944;SDS011;55984;48.790;8.990;2022-12-29T01:20:46;3.63;;;2.33;;
68944;SDS011;55984;48.790;8.990;2022-12-29T01:23:11;6.20;;;2.90;;
68944;SDS011;55984;48.790;8.990;2022-12-29T01:25:37;4.47;;;2.50;;
68944;SDS011;55984;48.790;8.990;2022-12-29T01:28:02;7.30;;;2.50;;
68944;SDS011;55984;48.790;8.990;2022-12-29T01:30:27;5.03;;;2.70;;
68944;SDS011;55984;48.790;8.990;2022-12-29T01:32:53;8.03;;;2.93;;
68944;SDS011;55984;48.790;8.990;2022-12-29T01:35:18;6.00;;;3.03;;
68944;SDS011;55984;48.790;8.990;2022-12-29T01:37:44;4.37;;;2.57;;
68944;SDS011;55984;48.790;8.990;2022-12-29T01:40:09;7.83;;;2.87;;
68944;SDS011;55984;48.790;8.990;2022-12-29T01:42:35;11.40;;;2.77;;
68944;SDS011;55984;48.790;8.990;2022-12-29T01:45:11;5.23;;;2.40;;
68944;SDS011;55984;48.790;8.990;2022-12-29T01:50:26;4.30;;;2.50;;
68944;SDS011;55984;48.790;8.990;2022-12-29T01:53:25;4.60;;;2.50;;
68944;SDS011;55984;48.790;8.990;2022-12-29T01:55:55;4.90;;;2.30;;
68944;SDS011;55984;48.790;8.990;2022-12-29T02:00:54;7.03;;;2.73;;
68944;SDS011;55984;48.790;8.990;2022-12-29T02:03:20;4.97;;;2.73;;
68944;SDS011;55984;48.790;8.990;2022-12-29T02:08:36;7.07;;;2.40;;
68944;SDS011;55984;48.790;8.990;2022-12-29T02:11:03;6.07;;;2.60;;
68944;SDS011;55984;48.790;8.990;2022-12-29T02:13:29;6.50;;;2.20;;
68944;SDS011;55984;48.790;8.990;2022-12-29T02:16:07;4.83;;;2.93;;
68944;SDS011;55984;48.790;8.990;2022-12-29T02:33:21;5.10;;;2.40;;
68944;SDS011;55984;48.790;8.990;2022-12-29T02:35:56;4.20;;;2.10;;
68944;SDS011;55984;48.790;8.990;2022-12-29T02:44:26;4.30;;;2.10;;
68944;SDS011;55984;48.790;8.990;2022-12-29T02:46:56;4.20;;;2.37;;
68944;SDS011;55984;48.790;8.990;2022-12-29T02:49:49;4.60;;;2.20;;
68944;SDS011;55984;48.790;8.990;2022-12-29T02:52:24;3.83;;;2.20;;
68944;SDS011;55984;48.790;8.990;2022-12-29T02:54:53;3.60;;;2.10;;
68944;SDS011;55984;48.790;8.990;2022-12-29T02:59:45;5.33;;;2.00;;
68944;SDS011;55984;48.790;8.990;2022-12-29T03:07:50;4.20;;;2.30;;
68944;SDS011;55984;48.790;8.990;2022-12-29T03:16:04;5.63;;;2.10;;
68944;SDS011;55984;48.790;8.990;2022-12-29T03:18:51;4.67;;;2.30;;
68944;SDS011;55984;48.790;8.990;2022-12-29T03:21:30;8.00;;;1.90;;
68944;SDS011;55984;48.790;8.990;2022-12-29T03:24:22;3.20;;;1.90;;
68944;SDS011;55984;48.790;8.990;2022-12-29T03:26:58;4.97;;;2.00;;
68944;SDS011;55984;48.790;8.990;2022-12-29T03:29:26;3.90;;;2.20;;
68944;SDS011;55984;48.790;8.990;2022-12-29T03:31:54;4.70;;;2.07;;
68944;SDS011;55984;48.790;8.990;2022-12-29T03:34:21;3.20;;;2.03;;
68944;SDS011;55984;48.790;8.990;2022-12-29T03:36:52;11.10;;;2.77;;
68944;SDS011;55984;48.790;8.990;2022-12-29T03:39:22;5.17;;;2.40;;
68944;SDS011;55984;48.790;8.990;2022-12-29T03:41:50;5.50;;;2.17;;
68944;SDS011;55984;48.790;8.990;2022-12-29T03:44:31;4.60;;;2.50;;
68944;SDS011;55984;48.790;8.990;2022-12-29T03:46:59;4.00;;;2.20;;
68944;SDS011;55984;48.790;8.990;2022-12-29T03:49:24;5.30;;;2.40;;
68944;SDS011;55984;48.790;8.990;2022-12-29T03:51:50;2.77;;;2.00;;
68944;SDS011;55984;48.790;8.990;2022-12-29T03:54:16;2.93;;;2.00;;
68944;SDS011;55984;48.790;8.990;2022-12-29T03:56:41;5.00;;;2.00;;
68944;SDS011;55984;48.790;8.990;2022-12-29T03:59:07;5.83;;;2.10;;
68944;SDS011;55984;48.790;8.990;2022-12-29T04:01:32;3.13;;;2.03;;
68944;SDS011;55984;48.790;8.990;2022-12-29T04:03:57;4.90;;;2.30;;
68944;SDS011;55984;48.790;8.990;2022-12-29T04:06:22;4.07;;;2.43;;
68944;SDS011;55984;48.790;8.990;2022-12-29T04:08:48;4.23;;;1.97;;
68944;SDS011;55984;48.790;8.990;2022-12-29T04:11:14;4.90;;;2.37;;
68944;SDS011;55984;48.790;8.990;2022-12-29T04:13:39;4.30;;;2.40;;
68944;SDS011;55984;48.790;8.990;2022-12-29T04:16:06;3.00;;;2.00;;
68944;SDS011;55984;48.790;8.990;2022-12-29T04:18:32;4.70;;;2.03;;
68944;SDS011;55984;48.790;8.990;2022-12-29T04:20:57;3.30;;;2.03;;
68944;SDS011;55984;48.790;8.990;2022-12-29T04:23:26;4.20;;;2.20;;
68944;SDS011;55984;48.790;8.990;2022-12-29T04:25:52;3.43;;;2.10;;
68944;SDS011;55984;48.790;8.990;2022-12-29T04:28:18;3.17;;;1.93;;
68944;SDS011;55984;48.790;8.990;2022-12-29T04:30:45;7.20;;;2.20;;
68944;SDS011;55984;48.790;8.990;2022-12-29T04:33:11;3.13;;;2.00;;
68944;SDS011;55984;48.790;8.990;2022-12-29T04:35:38;4.77;;;1.80;;
68944;SDS011;55984;48.790;8.990;2022-12-29T04:38:03;5.60;;;2.13;;
68944;SDS011;55984;48.790;8.990;2022-12-29T04:40:29;4.10;;;2.17;;
68944;SDS011;55984;48.790;8.990;2022-12-29T04:42:54;10.03;;;2.83;;
68944;SDS011;55984;48.790;8.990;2022-12-29T04:45:20;6.00;;;2.40;;
68944;SDS011;55984;48.790;8.990;2022-12-29T04:47:45;5.50;;;2.80;;
68944;SDS011;55984;48.790;8.990;2022-12-29T04:50:11;5.50;;;2.47;;
68944;SDS011;55984;48.790;8.990;2022-12-29T04:52:36;4.40;;;2.20;;
68944;SDS011;55984;48.790;8.990;2022-12-29T04:55:02;4.20;;;2.60;;
68944;SDS011;55984;48.790;8.990;2022-12-29T04:57:28;9.30;;;2.73;;
68944;SDS011;55984;48.790;8.990;2022-12-29T04:59:54;10.50;;;2.43;;
68944;SDS011;55984;48.790;8.990;2022-12-29T05:02:19;4.90;;;2.30;;
68944;SDS011;55984;48.790;8.990;2022-12-29T05:04:45;3.03;;;2.10;;
68944;SDS011;55984;48.790;8.990;2022-12-29T05:07:11;5.70;;;2.30;;
68944;SDS011;55984;48.790;8.990;2022-12-29T05:09:37;7.80;;;2.37;;
68944;SDS011;55984;48.790;8.990;2022-12-29T05:12:05;6.70;;;2.53;;
68944;SDS011;55984;48.790;8.990;2022-12-29T05:14:32;8.83;;;2.63;;
68944;SDS011;55984;48.790;8.990;2022-12-29T05:16:57;4.37;;;2.50;;
68944;SDS011;55984;48.790;8.990;2022-12-29T05:19:23;6.27;;;2.50;;
68944;SDS011;55984;48.790;8.990;2022-12-29T05:21:48;5.03;;;2.53;;
68944;SDS011;55984;48.790;8.990;2022-12-29T05:24:13;9.47;;;2.77;;
68944;SDS011;55984;48.790;8.990;2022-12-29T05:26:40;10.23;;;2.60;;
68944;SDS011;55984;48.790;8.990;2022-12-29T05:29:06;4.47;;;2.70;;
68944;SDS011;55984;48.790;8.990;2022-12-29T05:31:33;4.67;;;2.60;;
68944;SDS011;55984;48.790;8.990;2022-12-29T05:34:00;7.77;;;2.50;;
68944;SDS011;55984;48.790;8.990;2022-12-29T05:36:26;8.17;;;2.73;;
68944;SDS011;55984;48.790;8.990;2022-12-29T05:38:51;6.50;;;2.50;;
68944;SDS011;55984;48.790;8.990;2022-12-29T05:41:17;5.47;;;2.90;;
68944;SDS011;55984;48.790;8.990;2022-12-29T05:43:42;5.67;;;2.77;;
68944;SDS011;55984;48.790;8.990;2022-12-29T05:46:08;4.73;;;2.40;;
68944;SDS011;55984;48.790;8.990;2022-12-29T05:48:33;4.40;;;2.33;;
68944;SDS011;55984;48.790;8.990;2022-12-29T05:50:59;3.70;;;2.33;;
68944;SDS011;55984;48.790;8.990;2022-12-29T05:53:25;5.67;;;2.63;;
68944;SDS011;55984;48.790;8.990;2022-12-29T05:55:50;4.53;;;2.60;;
68944;SDS011;55984;48.790;8.990;2022-12-29T05:58:16;5.43;;;3.13;;
68944;SDS011;55984;48.790;8.990;2022-12-29T06:00:42;4.57;;;2.37;;
68944;SDS011;55984;48.790;8.990;2022-12-29T06:03:07;6.87;;;2.43;;
68944;SDS011;55984;48.790;8.990;2022-12-29T06:05:33;5.60;;;2.53;;
68944;SDS011;55984;48.790;8.990;2022-12-29T06:07:58;4.07;;;2.43;;
68944;SDS011;55984;48.790;8.990;2022-12-29T06:10:24;4.50;;;2.40;;
68944;SDS011;55984;48.790;8.990;2022-12-29T06:12:50;5.50;;;2.50;;
68944;SDS011;55984;48.790;8.990;2022-12-29T06:15:16;4.40;;;2.40;;
68944;SDS011;55984;48.790;8.990;2022-12-29T06:17:41;4.20;;;2.50;;
68944;SDS011;55984;48.790;8.990;2022-12-29T06:20:07;9.90;;;2.90;;
68944;SDS011;55984;48.790;8.990;2022-12-29T06:22:34;5.07;;;2.73;;
68944;SDS011;55984;48.790;8.990;2022-12-29T06:25:00;5.70;;;2.77;;
68944;SDS011;55984;48.790;8.990;2022-12-29T06:27:26;4.63;;;2.43;;
68944;SDS011;55984;48.790;8.990;2022-12-29T06:29:52;5.87;;;2.80;;
68944;SDS011;55984;48.790;8.990;2022-12-29T06:32:17;6.67;;;2.97;;
68944;SDS011;55984;48.790;8.990;2022-12-29T06:34:43;9.50;;;2.70;;
68944;SDS011;55984;48.790;8.990;2022-12-29T06:37:10;5.17;;;2.33;;
68944;SDS011;55984;48.790;8.990;2022-12-29T06:39:35;3.90;;;2.50;;
68944;SDS011;55984;48.790;8.990;2022-12-29T06:42:01;10.63;;;2.40;;
68944;SDS011;55984;48.790;8.990;2022-12-29T06:44:26;5.43;;;2.70;;
68944;SDS011;55984;48.790;8.990;2022-12-29T06:46:52;5.30;;;2.70;;
68944;SDS011;55984;48.790;8.990;2022-12-29T06:49:18;4.17;;;2.70;;
68944;SDS011;55984;48.790;8.990;2022-12-29T06:51:44;6.70;;;2.50;;
68944;SDS011;55984;48.790;8.990;2022-12-29T06:54:09;6.03;;;2.50;;
68944;SDS011;55984;48.790;8.990;2022-12-29T06:56:34;4.00;;;2.60;;
68944;SDS011;55984;48.790;8.990;2022-12-29T06:59:00;4.33;;;2.53;;
68944;SDS011;55984;48.790;8.990;2022-12-29T07:01:26;7.90;;;2.60;;
68944;SDS011;55984;48.790;8.990;2022-12-29T07:03:51;5.70;;;2.70;;
68944;SDS011;55984;48.790;8.990;2022-12-29T07:06:17;6.40;;;2.70;;
68944;SDS011;55984;48.790;8.990;2022-12-29T07:08:42;4.90;;;2.60;;
68944;SDS011;55984;48.790;8.990;2022-12-29T07:11:08;8.67;;;3.10;;
68944;SDS011;55984;48.790;8.990;2022-12-29T07:13:34;9.93;;;2.90;;
68944;SDS011;55984;48.790;8.990;2022-12-29T07:16:04;4.67;;;3.87;;
68944;SDS011;55984;48.790;8.990;2022-12-29T07:18:30;7.93;;;2.73;;
68944;SDS011;55984;48.790;8.990;2022-12-29T07:20:56;4.93;;;2.60;;
68944;SDS011;55984;48.790;8.990;2022-12-29T07:23:21;7.10;;;2.93;;
68944;SDS011;55984;48.790;8.990;2022-12-29T07:25:46;7.10;;;2.57;;
68944;SDS011;55984;48.790;8.990;2022-12-29T07:28:12;4.30;;;2.73;;
68944;SDS011;55984;48.790;8.990;2022-12-29T07:30:38;6.43;;;2.70;;
68944;SDS011;55984;48.790;8.990;2022-12-29T07:33:03;5.73;;;2.73;;
68944;SDS011;55984;48.790;8.990;2022-12-29T07:35:29;5.30;;;2.60;;
68944;SDS011;55984;48.790;8.990;2022-12-29T07:37:54;5.30;;;2.90;;
68944;SDS011;55984;48.790;8.990;2022-12-29T07:40:19;4.37;;;2.30;;
68944;SDS011;55984;48.790;8.990;2022-12-29T07:42:45;4.03;;;2.80;;
68944;SDS011;55984;48.790;8.990;2022-12-29T07:45:10;5.40;;;3.20;;
68944;SDS011;55984;48.790;8.990;2022-12-29T07:47:35;6.67;;;2.77;;
68944;SDS011;55984;48.790;8.990;2022-12-29T07:50:01;6.10;;;2.70;;
68944;SDS011;55984;48.790;8.990;2022-12-29T07:52:26;4.70;;;2.80;;
68944;SDS011;55984;48.790;8.990;2022-12-29T07:54:52;12.33;;;2.80;;
68944;SDS011;55984;48.790;8.990;2022-12-29T07:57:17;6.10;;;2.80;;
68944;SDS011;55984;48.790;8.990;2022-12-29T07:59:42;5.30;;;2.77;;
68944;SDS011;55984;48.790;8.990;2022-12-29T08:02:09;10.30;;;2.47;;
68944;SDS011;55984;48.790;8.990;2022-12-29T08:04:36;4.90;;;2.60;;
68944;SDS011;55984;48.790;8.990;2022-12-29T08:07:01;3.70;;;2.37;;
68944;SDS011;55984;48.790;8.990;2022-12-29T08:09:27;9.00;;;2.67;;
68944;SDS011;55984;48.790;8.990;2022-12-29T08:11:53;6.23;;;2.63;;
68944;SDS011;55984;48.790;8.990;2022-12-29T08:14:18;7.80;;;2.60;;
68944;SDS011;55984;48.790;8.990;2022-12-29T08:16:44;10.23;;;3.23;;
68944;SDS011;55984;48.790;8.990;2022-12-29T08:19:10;6.57;;;3.00;;
68944;SDS011;55984;48.790;8.990;2022-12-29T08:21:36;4.00;;;2.40;;
68944;SDS011;55984;48.790;8.990;2022-12-29T08:24:02;3.93;;;2.40;;
68944;SDS011;55984;48.790;8.990;2022-12-29T08:26:27;5.23;;;2.77;;
68944;SDS011;55984;48.790;8.990;2022-12-29T08:28:53;4.47;;;2.33;;
68944;SDS011;55984;48.790;8.990;2022-12-29T08:31:19;5.90;;;2.80;;
68944;SDS011;55984;48.790;8.990;2022-12-29T08:33:44;4.73;;;2.20;;
68944;SDS011;55984;48.790;8.990;2022-12-29T08:36:10;6.13;;;2.87;;
68944;SDS011;55984;48.790;8.990;2022-12-29T08:38:35;4.87;;;2.53;;
68944;SDS011;55984;48.790;8.990;2022-12-29T08:41:01;3.87;;;2.40;;
68944;SDS011;55984;48.790;8.990;2022-12-29T08:43:26;4.80;;;2.50;;
68944;SDS011;55984;48.790;8.990;2022-12-29T08:45:52;4.93;;;3.03;;
68944;SDS011;55984;48.790;8.990;2022-12-29T08:48:18;7.60;;;2.60;;
68944;SDS011;55984;48.790;8.990;2022-12-29T08:50:45;5.73;;;2.47;;
68944;SDS011;55984;48.790;8.990;2022-12-29T08:53:11;5.10;;;2.60;;
68944;SDS011;55984;48.790;8.990;2022-12-29T08:55:37;8.53;;;2.80;;
68944;SDS011;55984;48.790;8.990;2022-12-29T08:58:02;4.90;;;2.50;;
68944;SDS011;55984;48.790;8.990;2022-12-29T09:00:27;7.63;;;2.70;;
68944;SDS011;55984;48.790;8.990;2022-12-29T09:02:53;5.13;;;2.47;;
68944;SDS011;55984;48.790;8.990;2022-12-29T09:05:18;7.50;;;3.33;;
68944;SDS011;55984;48.790;8.990;2022-12-29T09:07:44;2.80;;;2.10;;
68944;SDS011;55984;48.790;8.990;2022-12-29T09:10:10;2.90;;;2.13;;
68944;SDS011;55984;48.790;8.990;2022-12-29T09:12:35;4.40;;;2.10;;
68944;SDS011;55984;48.790;8.990;2022-12-29T09:15:01;6.20;;;2.47;;
68944;SDS011;55984;48.790;8.990;2022-12-29T09:17:27;4.50;;;2.20;;
68944;SDS011;55984;48.790;8.990;2022-12-29T09:20:12;4.63;;;2.33;;
68944;SDS011;55984;48.790;8.990;2022-12-29T09:22:38;5.03;;;2.60;;
68944;SDS011;55984;48.790;8.990;2022-12-29T09:25:04;4.53;;;2.30;;
68944;SDS011;55984;48.790;8.990;2022-12-29T09:27:30;5.70;;;2.50;;
68944;SDS011;55984;48.790;8.990;2022-12-29T09:29:55;3.07;;;2.20;;
68944;SDS011;55984;48.790;8.990;2022-12-29T09:32:21;3.93;;;2.20;;
68944;SDS011;55984;48.790;8.990;2022-12-29T09:34:46;3.70;;;2.30;;
68944;SDS011;55984;48.790;8.990;2022-12-29T09:37:12;25.17;;;2.37;;
68944;SDS011;55984;48.790;8.990;2022-12-29T09:39:37;3.47;;;2.20;;
68944;SDS011;55984;48.790;8.990;2022-12-29T09:42:06;8.03;;;2.37;;
68944;SDS011;55984;48.790;8.990;2022-12-29T09:47:20;2.63;;;1.90;;
68944;SDS011;55984;48.790;8.990;2022-12-29T09:52:24;5.63;;;2.20;;
68944;SDS011;55984;48.790;8.990;2022-12-29T09:57:24;3.80;;;2.07;;
68944;SDS011;55984;48.790;8.990;2022-12-29T09:59:57;6.63;;;2.20;;
68944;SDS011;55984;48.790;8.990;2022-12-29T10:02:34;4.77;;;2.20;;
68944;SDS011;55984;48.790;8.990;2022-12-29T10:05:04;3.90;;;2.17;;
68944;SDS011;55984;48.790;8.990;2022-12-29T10:10:23;4.90;;;2.03;;
68944;SDS011;55984;48.790;8.990;2022-12-29T10:23:48;5.60;;;2.37;;
68944;SDS011;55984;48.790;8.990;2022-12-29T10:26:20;3.87;;;2.00;;
68944;SDS011;55984;48.790;8.990;2022-12-29T10:28:58;5.20;;;2.60;;
68944;SDS011;55984;48.790;8.990;2022-12-29T10:31:32;3.80;;;2.30;;
68944;SDS011;55984;48.790;8.990;2022-12-29T10:34:03;3.90;;;2.10;;
68944;SDS011;55984;48.790;8.990;2022-12-29T10:36:41;8.00;;;2.10;;
68944;SDS011;55984;48.790;8.990;2022-12-29T10:39:20;10.90;;;2.20;;
68944;SDS011;55984;48.790;8.990;2022-12-29T10:42:15;3.90;;;2.10;;
68944;SDS011;55984;48.790;8.990;2022-12-29T10:44:59;4.83;;;2.27;;
68944;SDS011;55984;48.790;8.990;2022-12-29T10:47:26;3.90;;;2.03;;
68944;SDS011;55984;48.790;8.990;2022-12-29T10:49:54;3.17;;;2.00;;
68944;SDS011;55984;48.790;8.990;2022-12-29T10:52:23;4.70;;;2.20;;
68944;SDS011;55984;48.790;8.990;2022-12-29T10:54:56;3.67;;;2.10;;
68944;SDS011;55984;48.790;8.990;2022-12-29T11:00:01;4.33;;;2.30;;
68944;SDS011;55984;48.790;8.990;2022-12-29T11:02:59;4.40;;;3.23;;
68944;SDS011;55984;48.790;8.990;2022-12-29T11:08:36;5.10;;;2.00;;
68944;SDS011;55984;48.790;8.990;2022-12-29T11:11:08;4.30;;;2.23;;
68944;SDS011;55984;48.790;8.990;2022-12-29T11:13:48;3.87;;;2.30;;
68944;SDS011;55984;48.790;8.990;2022-12-29T11:16:24;5.70;;;2.30;;
68944;SDS011;55984;48.790;8.990;2022-12-29T11:18:55;3.80;;;2.00;;
68944;SDS011;55984;48.790;8.990;2022-12-29T11:24:00;9.07;;;2.37;;
68944;SDS011;55984;48.790;8.990;2022-12-29T11:26:28;3.43;;;2.13;;
68944;SDS011;55984;48.790;8.990;2022-12-29T11:31:42;2.67;;;1.90;;
68944;SDS011;55984;48.790;8.990;2022-12-29T11:34:16;4.27;;;2.00;;
68944;SDS011;55984;48.790;8.990;2022-12-29T11:36:42;4.63;;;2.00;;
68944;SDS011;55984;48.790;8.990;2022-12-29T11:39:16;3.03;;;2.00;;
68944;SDS011;55984;48.790;8.990;2022-12-29T11:41:52;3.93;;;1.83;;
68944;SDS011;55984;48.790;8.990;2022-12-29T11:44:18;2.00;;;1.47;;
68944;SDS011;55984;48.790;8.990;2022-12-29T11:46:45;2.93;;;1.63;;
68944;SDS011;55984;48.790;8.990;2022-12-29T11:49:13;3.80;;;1.80;;
68944;SDS011;55984;48.790;8.990;2022-12-29T11:51:46;2.10;;;1.70;;
68944;SDS011;55984;48.790;8.990;2022-12-29T11:54:33;3.20;;;1.80;;
68944;SDS011;55984;48.790;8.990;2022-12-29T11:57:12;3.00;;;1.97;;
68944;SDS011;55984;48.790;8.990;2022-12-29T11:59:41;7.53;;;2.60;;
68944;SDS011;55984;48.790;8.990;2022-12-29T12:04:45;4.07;;;2.47;;
68944;SDS011;55984;48.790;8.990;2022-12-29T12:07:59;5.90;;;2.30;;
68944;SDS011;55984;48.790;8.990;2022-12-29T12:10:06;4.43;;;2.50;;
68944;SDS011;55984;48.790;8.990;2022-12-29T12:13:03;4.70;;;2.83;;
68944;SDS011;55984;48.790;8.990;2022-12-29T12:15:52;4.30;;;2.57;;
68944;SDS011;55984;48.790;8.990;2022-12-29T12:18:24;6.30;;;2.80;;
68944;SDS011;55984;48.790;8.990;2022-12-29T12:21:18;4.00;;;2.40;;
68944;SDS011;55984;48.790;8.990;2022-12-29T12:29:20;5.23;;;2.67;;
68944;SDS011;55984;48.790;8.990;2022-12-29T12:31:58;4.10;;;2.50;;
68944;SDS011;55984;48.790;8.990;2022-12-29T12:34:36;12.03;;;2.93;;
68944;SDS011;55984;48.790;8.990;2022-12-29T12:48:52;13.37;;;2.67;;
68944;SDS011;55984;48.790;8.990;2022-12-29T12:51:55;5.10;;;2.10;;
68944;SDS011;55984;48.790;8.990;2022-12-29T13:00:04;3.97;;;2.50;;
68944;SDS011;55984;48.790;8.990;2022-12-29T13:02:57;4.40;;;2.50;;
68944;SDS011;55984;48.790;8.990;2022-12-29T13:27:11;8.60;;;2.60;;
68944;SDS011;55984;48.790;8.990;2022-12-29T13:32:37;6.03;;;2.40;;
68944;SDS011;55984;48.790;8.990;2022-12-29T13:35:36;5.57;;;2.77;;
68944;SDS011;55984;48.790;8.990;2022-12-29T13:43:55;4.33;;;2.33;;
68944;SDS011;55984;48.790;8.990;2022-12-29T13:46:31;3.30;;;2.13;;
68944;SDS011;55984;48.790;8.990;2022-12-29T13:49:04;4.20;;;2.33;;
68944;SDS011;55984;48.790;8.990;2022-12-29T13:51:36;3.80;;;2.50;;
68944;SDS011;55984;48.790;8.990;2022-12-29T13:56:51;2.70;;;2.27;;
68944;SDS011;55984;48.790;8.990;2022-12-29T14:05:03;7.03;;;2.63;;
68944;SDS011;55984;48.790;8.990;2022-12-29T14:07:35;5.43;;;2.57;;
68944;SDS011;55984;48.790;8.990;2022-12-29T14:10:03;10.93;;;2.50;;
68944;SDS011;55984;48.790;8.990;2022-12-29T14:12:42;20.83;;;3.37;;
68944;SDS011;55984;48.790;8.990;2022-12-29T14:17:33;9.10;;;2.77;;
68944;SDS011;55984;48.790;8.990;2022-12-29T14:20:01;6.13;;;2.80;;
68944;SDS011;55984;48.790;8.990;2022-12-29T14:22:28;6.00;;;2.60;;
68944;SDS011;55984;48.790;8.990;2022-12-29T14:24:54;4.07;;;2.17;;
68944;SDS011;55984;48.790;8.990;2022-12-29T14:29:50;7.20;;;2.50;;
68944;SDS011;55984;48.790;8.990;2022-12-29T14:34:52;3.20;;;2.20;;
68944;SDS011;55984;48.790;8.990;2022-12-29T14:37:35;3.50;;;2.47;;
68944;SDS011;55984;48.790;8.990;2022-12-29T14:42:50;4.30;;;2.40;;
68944;SDS011;55984;48.790;8.990;2022-12-29T14:47:51;4.47;;;2.50;;
68944;SDS011;55984;48.790;8.990;2022-12-29T14:53:04;7.50;;;2.50;;
68944;SDS011;55984;48.790;8.990;2022-12-29T14:55:41;13.47;;;2.60;;
68944;SDS011;55984;48.790;8.990;2022-12-29T15:00:51;8.67;;;2.47;;
68944;SDS011;55984;48.790;8.990;2022-12-29T15:03:22;10.33;;;2.70;;
68944;SDS011;55984;48.790;8.990;2022-12-29T15:05:54;8.90;;;2.90;;
68944;SDS011;55984;48.790;8.990;2022-12-29T15:08:28;7.50;;;2.70;;
68944;SDS011;55984;48.790;8.990;2022-12-29T15:11:00;6.40;;;3.10;;
68944;SDS011;55984;48.790;8.990;2022-12-29T15:13:35;4.90;;;2.67;;
68944;SDS011;55984;48.790;8.990;2022-12-29T15:16:03;7.33;;;3.10;;
68944;SDS011;55984;48.790;8.990;2022-12-29T15:18:30;3.63;;;2.53;;
68944;SDS011;55984;48.790;8.990;2022-12-29T15:21:03;18.03;;;3.30;;
68944;SDS011;55984;48.790;8.990;2022-12-29T15:23:31;5.10;;;3.33;;
68944;SDS011;55984;48.790;8.990;2022-12-29T15:26:06;5.40;;;2.80;;
68944;SDS011;55984;48.790;8.990;2022-12-29T15:28:46;8.20;;;2.80;;
68944;SDS011;55984;48.790;8.990;2022-12-29T15:31:16;11.07;;;3.27;;
68944;SDS011;55984;48.790;8.990;2022-12-29T15:33:42;4.63;;;2.67;;
68944;SDS011;55984;48.790;8.990;2022-12-29T15:36:12;10.47;;;3.20;;
68944;SDS011;55984;48.790;8.990;2022-12-29T15:38:43;4.13;;;2.23;;
68944;SDS011;55984;48.790;8.990;2022-12-29T15:41:20;6.13;;;2.17;;
68944;SDS011;55984;48.790;8.990;2022-12-29T15:43:53;6.80;;;1.90;;
68944;SDS011;55984;48.790;8.990;2022-12-29T15:46:19;2.80;;;2.00;;
68944;SDS011;55984;48.790;8.990;2022-12-29T15:48:45;6.00;;;1.80;;
68944;SDS011;55984;48.790;8.990;2022-12-29T15:51:22;5.27;;;2.20;;
68944;SDS011;55984;48.790;8.990;2022-12-29T15:54:04;2.57;;;1.67;;
68944;SDS011;55984;48.790;8.990;2022-12-29T15:56:31;7.20;;;2.17;;
68944;SDS011;55984;48.790;8.990;2022-12-29T15:58:59;3.60;;;1.87;;
68944;SDS011;55984;48.790;8.990;2022-12-29T16:01:30;3.23;;;1.70;;
68944;SDS011;55984;48.790;8.990;2022-12-29T16:03:58;2.37;;;1.57;;
68944;SDS011;55984;48.790;8.990;2022-12-29T16:06:35;6.20;;;1.60;;
68944;SDS011;55984;48.790;8.990;2022-12-29T16:09:17;6.90;;;1.47;;
68944;SDS011;55984;48.790;8.990;2022-12-29T16:11:53;4.00;;;1.60;;
68944;SDS011;55984;48.790;8.990;2022-12-29T16:17:12;4.40;;;1.60;;
68944;SDS011;55984;48.790;8.990;2022-12-29T16:19:41;7.50;;;1.90;;
68944;SDS011;55984;48.790;8.990;2022-12-29T16:25:06;3.53;;;1.70;;
68944;SDS011;55984;48.790;8.990;2022-12-29T16:27:49;2.60;;;1.70;;
68944;SDS011;55984;48.790;8.990;2022-12-29T16:32:47;2.63;;;1.80;;
68944;SDS011;55984;48.790;8.990;2022-12-29T16:37:47;10.20;;;2.10;;
68944;SDS011;55984;48.790;8.990;2022-12-29T16:40:28;3.93;;;1.87;;
68944;SDS011;55984;48.790;8.990;2022-12-29T16:43:02;6.60;;;1.83;;
68944;SDS011;55984;48.790;8.990;2022-12-29T16:50:35;4.70;;;2.20;;
68944;SDS011;55984;48.790;8.990;2022-12-29T16:53:03;3.47;;;2.10;;
68944;SDS011;55984;48.790;8.990;2022-12-29T16:55:30;4.27;;;2.13;;
68944;SDS011;55984;48.790;8.990;2022-12-29T16:57:57;5.50;;;2.27;;
68944;SDS011;55984;48.790;8.990;2022-12-29T17:00:27;3.53;;;2.10;;
68944;SDS011;55984;48.790;8.990;2022-12-29T17:02:58;3.50;;;2.30;;
68944;SDS011;55984;48.790;8.990;2022-12-29T17:05:27;5.20;;;2.30;;
68944;SDS011;55984;48.790;8.990;2022-12-29T17:07:52;4.20;;;2.23;;
68944;SDS011;55984;48.790;8.990;2022-12-29T17:10:18;4.23;;;2.20;;
68944;SDS011;55984;48.790;8.990;2022-12-29T17:12:44;4.20;;;2.00;;
68944;SDS011;55984;48.790;8.990;2022-12-29T17:15:21;3.33;;;2.20;;
68944;SDS011;55984;48.790;8.990;2022-12-29T17:17:51;4.87;;;2.50;;
68944;SDS011;55984;48.790;8.990;2022-12-29T17:22:46;7.43;;;2.43;;
68944;SDS011;55984;48.790;8.990;2022-12-29T17:25:13;3.73;;;2.40;;
68944;SDS011;55984;48.790;8.990;2022-12-29T17:27:41;7.97;;;3.00;;
68944;SDS011;55984;48.790;8.990;2022-12-29T17:30:20;5.73;;;2.70;;
68944;SDS011;55984;48.790;8.990;2022-12-29T17:32:55;5.10;;;2.77;;
68944;SDS011;55984;48.790;8.990;2022-12-29T17:35:31;6.07;;;2.60;;
68944;SDS011;55984;48.790;8.990;2022-12-29T17:37:57;4.57;;;2.50;;
68944;SDS011;55984;48.790;8.990;2022-12-29T17:40:26;5.50;;;2.43;;
68944;SDS011;55984;48.790;8.990;2022-12-29T17:42:54;7.67;;;2.47;;
68944;SDS011;55984;48.790;8.990;2022-12-29T17:45:28;7.83;;;2.57;;
68944;SDS011;55984;48.790;8.990;2022-12-29T17:47:55;5.07;;;2.20;;
68944;SDS011;55984;48.790;8.990;2022-12-29T17:50:25;5.80;;;2.40;;
68944;SDS011;55984;48.790;8.990;2022-12-29T17:53:04;4.03;;;2.13;;
68944;SDS011;55984;48.790;8.990;2022-12-29T17:55:31;6.07;;;2.57;;
68944;SDS011;55984;48.790;8.990;2022-12-29T17:57:57;6.40;;;2.70;;
68944;SDS011;55984;48.790;8.990;2022-12-29T18:00:24;13.40;;;2.83;;
68944;SDS011;55984;48.790;8.990;2022-12-29T18:02:52;11.70;;;3.40;;